Time;durP1;ratioP1;P1;durP2;ratioP2;P2;SDS_P1;SDS_P2;PMS_P1;PMS_P2;Temp;Humidity;BMP_temperature;BMP_pressure;BME280_temperature;BME280_humidity;BME280_pressure;Samples;Min_cycle;Max_cycle;Signal;HPM_P1;HPM_P2
2022/11/25 00:01:29;;;;;;;25.38;9.63;;;4.10;99.90;;;3.39;100.00;97456.38;5037412;28;20053;-70
2022/11/25 00:03:57;;;;;;;23.52;9.57;;;4.10;99.90;;;3.60;100.00;97452.59;5032695;28;20152;-71
2022/11/25 00:06:28;;;;;;;33.67;10.57;;;4.20;99.90;;;3.50;100.00;97448.50;5038073;28;20056;-72
2022/11/25 00:08:59;;;;;;;22.23;10.13;;;4.20;99.90;;;3.45;100.00;97448.56;5036371;28;20056;-71
2022/11/25 00:11:27;;;;;;;26.00;10.18;;;4.20;99.90;;;3.58;100.00;97446.66;5037390;28;20144;-71
2022/11/25 00:13:56;;;;;;;27.00;10.38;;;4.30;99.90;;;3.68;100.00;97447.34;5036392;28;20749;-70
2022/11/25 00:16:25;;;;;;;28.25;11.15;;;4.30;99.90;;;3.60;100.00;97449.19;5034720;28;20144;-71
2022/11/25 00:18:55;;;;;;;26.83;10.93;;;4.40;99.90;;;3.67;100.00;97446.50;5038282;28;20056;-71
2022/11/25 00:21:27;;;;;;;34.17;11.40;;;4.50;99.90;;;3.77;100.00;97442.06;5037559;28;20055;-71
2022/11/25 00:23:57;;;;;;;26.27;11.15;;;4.50;99.90;;;3.73;100.00;97443.81;5038490;28;20045;-70
2022/11/25 00:26:26;;;;;;;31.77;12.38;;;4.60;99.90;;;3.64;100.00;97454.25;5051723;28;20049;-71
2022/11/25 00:28:56;;;;;;;29.60;11.07;;;4.60;99.90;;;3.72;100.00;97444.69;5038065;28;20045;-71
2022/11/25 00:31:26;;;;;;;28.98;12.43;;;4.60;99.90;;;3.62;100.00;97453.41;5019220;28;20052;-69
2022/11/25 00:33:54;;;;;;;27.20;11.15;;;4.70;99.90;;;3.82;100.00;97445.38;5036195;28;20540;-71
2022/11/25 00:36:32;;;;;;;27.30;11.32;;;4.70;99.90;;;3.90;100.00;97440.97;5039789;28;20164;-71
2022/11/25 00:39:04;;;;;;;24.27;8.95;;;4.80;99.90;;;4.04;100.00;97443.28;5037899;28;20053;-72
2022/11/25 00:44:34;;;;;;;26.60;10.35;;;4.90;99.90;;;3.87;100.00;97443.56;5034551;28;20053;-70
2022/11/25 00:47:17;;;;;;;29.13;9.85;;;4.90;99.90;;;3.85;100.00;97449.59;5050078;28;20044;-71
2022/11/25 00:49:50;;;;;;;24.85;11.02;;;4.80;99.90;;;3.84;100.00;97441.06;5057085;28;20100;-71
2022/11/25 00:52:20;;;;;;;21.80;9.68;;;4.90;99.90;;;3.92;100.00;97440.91;5043981;28;20045;-71
2022/11/25 00:54:50;;;;;;;26.27;10.80;;;4.80;99.90;;;3.78;100.00;97442.00;5040835;28;20057;-71
2022/11/25 00:57:19;;;;;;;22.88;10.85;;;4.80;99.90;;;3.65;100.00;97444.81;5034642;28;20053;-71
2022/11/25 00:59:47;;;;;;;24.90;10.35;;;4.80;99.90;;;3.63;100.00;97438.88;5041284;28;20059;-71
2022/11/25 01:02:16;;;;;;;27.52;13.52;;;4.70;99.90;;;3.53;100.00;97445.88;5042245;28;20045;-71
2022/11/25 01:04:43;;;;;;;30.48;14.15;;;4.60;99.90;;;3.41;100.00;97439.22;5040586;28;20107;-71
2022/11/25 01:07:10;;;;;;;32.55;13.88;;;4.60;99.90;;;3.47;100.00;97440.84;5045573;28;20051;-71
2022/11/25 01:09:37;;;;;;;29.23;12.88;;;4.50;99.90;;;3.43;100.00;97437.47;5044180;28;20052;-72
2022/11/25 01:12:05;;;;;;;30.63;13.63;;;4.50;99.90;;;3.45;100.00;97445.16;5045047;28;20359;-71
2022/11/25 01:14:33;;;;;;;26.25;13.43;;;4.60;99.90;;;3.48;100.00;97442.53;5040341;28;20048;-70
2022/11/25 01:17:00;;;;;;;25.77;12.65;;;4.60;99.90;;;3.48;100.00;97442.53;5045206;28;20056;-71
2022/11/25 01:19:28;;;;;;;26.88;11.63;;;4.60;99.90;;;3.52;100.00;97444.19;5044376;28;20048;-70
2022/11/25 01:21:54;;;;;;;26.48;11.00;;;4.70;99.90;;;3.70;100.00;97443.03;5043948;28;20041;-71
2022/11/25 01:24:22;;;;;;;19.83;10.25;;;4.70;99.90;;;3.74;100.00;97435.25;5043770;28;20072;-70
2022/11/25 01:26:50;;;;;;;29.85;10.70;;;4.80;99.90;;;3.75;100.00;97436.94;5041461;28;20065;-71
2022/11/25 01:29:18;;;;;;;25.77;11.55;;;4.80;99.90;;;3.78;100.00;97438.59;5047172;28;20044;-71
2022/11/25 01:31:47;;;;;;;24.17;11.10;;;4.80;99.90;;;3.86;100.00;97439.31;5043372;28;20056;-71
2022/11/25 01:34:20;;;;;;;23.75;10.55;;;4.80;99.90;;;3.86;100.00;97441.03;5042907;28;20044;-72
2022/11/25 01:36:47;;;;;;;19.95;8.63;;;4.90;99.90;;;3.92;100.00;97444.34;5045588;28;20095;-72
2022/11/25 01:39:23;;;;;;;22.17;8.63;;;5.00;99.90;;;3.90;100.00;97443.53;5043958;28;20053;-71
2022/11/25 01:41:58;;;;;;;26.08;10.77;;;5.00;99.90;;;3.89;100.00;97431.53;5042917;28;20053;-70
2022/11/25 01:44:31;;;;;;;20.92;10.25;;;5.00;99.90;;;3.90;100.00;97430.69;5041584;28;20056;-71
2022/11/25 01:46:58;;;;;;;;;;;4.90;99.90;;;3.92;100.00;97435.78;5037301;28;20160;-70
2022/11/25 01:49:37;;;;;;;27.35;8.70;;;4.90;99.90;;;3.93;100.00;97432.34;5040477;28;20244;-71
2022/11/25 01:52:24;;;;;;;23.75;7.30;;;4.90;99.90;;;4.00;100.00;97433.94;5041901;28;20044;-70
2022/11/25 01:55:07;;;;;;;20.42;8.73;;;4.90;99.90;;;4.06;100.00;97430.38;5045414;28;20060;-71
2022/11/25 01:58:02;;;;;;;21.20;8.38;;;5.00;99.90;;;4.15;100.00;97433.66;5042270;28;20059;-71
2022/11/25 02:00:29;;;;;;;24.15;9.10;;;5.00;99.90;;;4.09;100.00;97428.63;5038449;28;20048;-71
2022/11/25 02:02:57;;;;;;;20.42;7.75;;;5.10;99.90;;;4.21;100.00;97422.38;5041784;28;20049;-72
2022/11/25 02:05:56;;;;;;;20.42;7.20;;;5.10;99.90;;;4.38;100.00;97411.78;5042454;28;20059;-70
2022/11/25 02:08:25;;;;;;;13.60;4.57;;;5.10;99.90;;;4.58;100.00;97417.34;5040199;28;20049;-71
2022/11/25 02:10:54;;;;;;;12.60;3.80;;;5.30;99.90;;;4.77;100.00;97414.38;5042265;28;20123;-71
2022/11/25 02:13:22;;;;;;;14.25;4.60;;;5.40;99.90;;;4.58;100.00;97409.66;5038684;28;20045;-72
2022/11/25 02:15:49;;;;;;;20.52;5.03;;;5.50;99.90;;;4.64;100.00;97405.25;5042090;28;20049;-69
2022/11/25 02:18:16;;;;;;;17.10;4.38;;;5.50;99.90;;;4.84;100.00;97397.09;5041914;28;20885;-70
2022/11/25 02:20:43;;;;;;;15.48;5.05;;;5.50;99.90;;;4.66;100.00;97403.50;5040500;28;20136;-71
2022/11/25 02:23:27;;;;;;;14.65;3.47;;;5.60;99.90;;;4.97;100.00;97403.63;5043905;28;20100;-70
2022/11/25 02:25:54;;;;;;;13.23;4.13;;;5.60;99.90;;;4.90;100.00;97402.91;5055961;28;20123;-70
2022/11/25 02:28:25;;;;;;;13.13;3.97;;;5.70;99.90;;;5.03;100.00;97399.19;5040097;28;20048;-70
2022/11/25 02:30:53;;;;;;;13.63;4.20;;;5.70;99.90;;;5.02;100.00;97397.50;5053461;28;20045;-70
2022/11/25 02:33:20;;;;;;;15.93;4.03;;;5.90;99.90;;;4.94;100.00;97398.56;5042787;28;20099;-71
2022/11/25 02:36:02;;;;;;;12.75;4.40;;;5.90;99.90;;;5.02;100.00;97391.53;5040147;28;20051;-71
2022/11/25 02:38:46;;;;;;;18.63;4.53;;;5.90;99.90;;;5.01;100.00;97389.81;5054813;28;20050;-70
2022/11/25 02:41:30;;;;;;;14.90;4.00;;;5.90;99.90;;;5.17;100.00;97385.16;5043693;28;20061;-69
2022/11/25 02:43:58;;;;;;;14.15;4.20;;;5.80;99.90;;;5.07;100.00;97388.84;5041776;28;20060;-71
2022/11/25 02:46:27;;;;;;;11.25;3.40;;;5.90;99.90;;;4.98;100.00;97388.16;5025664;28;20052;-70
2022/11/25 02:48:57;;;;;;;14.00;3.28;;;5.90;99.90;;;5.16;100.00;97392.03;5035896;28;20494;-70
2022/11/25 02:51:38;;;;;;;10.82;3.08;;;5.90;99.90;;;5.25;100.00;97393.56;5044115;28;20509;-71
2022/11/25 02:54:06;;;;;;;11.20;2.60;;;6.00;99.90;;;5.42;100.00;97387.97;5041955;28;20047;-71
2022/11/25 02:56:34;;;;;;;11.43;2.47;;;6.00;99.90;;;5.60;100.00;97384.09;5043013;28;20048;-70
2022/11/25 02:59:02;;;;;;;9.93;2.00;;;6.10;99.90;;;5.76;100.00;97381.97;5043159;28;20371;-70
2022/11/25 03:01:30;;;;;;;9.30;2.00;;;6.20;99.90;;;5.76;100.00;97380.22;5038211;28;20148;-71
2022/11/25 03:03:58;;;;;;;11.40;1.98;;;6.30;99.90;;;5.92;100.00;97375.50;5039317;28;20509;-69
2022/11/25 03:06:25;;;;;;;10.25;1.20;;;6.40;99.90;;;6.01;100.00;97371.88;5041785;28;20048;-70
2022/11/25 03:08:52;;;;;;;6.25;1.50;;;6.50;99.90;;;6.13;100.00;97362.94;5042132;28;20052;-71
2022/11/25 03:11:19;;;;;;;8.13;1.63;;;6.50;99.90;;;6.13;100.00;97362.94;5041755;28;20498;-71
2022/11/25 03:13:46;;;;;;;6.88;1.58;;;6.60;99.90;;;6.26;100.00;97364.28;5041864;28;20059;-70
2022/11/25 03:16:13;;;;;;;8.45;1.60;;;6.70;99.90;;;6.16;100.00;97362.84;5043362;28;20423;-71
2022/11/25 03:18:40;;;;;;;8.32;1.40;;;6.80;99.90;;;6.28;100.00;97355.63;5039351;28;20049;-70
2022/11/25 03:21:07;;;;;;;11.77;1.90;;;6.80;99.90;;;6.27;100.00;97350.50;5040906;28;20071;-71
2022/11/25 03:23:34;;;;;;;12.70;2.08;;;6.80;99.90;;;6.24;100.00;97361.75;5043306;28;20053;-70
2022/11/25 03:26:05;;;;;;;11.73;1.95;;;6.80;99.90;;;6.24;100.00;97355.75;5042060;28;20155;-70
2022/11/25 03:28:32;;;;;;;9.70;1.90;;;6.80;99.90;;;6.15;100.00;97361.19;5042569;28;20123;-69
2022/11/25 03:30:59;;;;;;;12.82;1.92;;;6.80;99.90;;;6.22;100.00;97354.94;5035358;28;20146;-70
2022/11/25 03:33:26;;;;;;;10.25;1.85;;;6.70;99.90;;;6.21;100.00;97348.13;5038417;28;20041;-70
2022/11/25 03:35:53;;;;;;;5.13;1.35;;;6.70;99.90;;;6.23;100.00;97348.94;5041754;28;20053;-71
2022/11/25 03:38:20;;;;;;;8.00;1.50;;;6.70;99.90;;;6.25;100.00;97355.72;5040308;28;20065;-71
2022/11/25 03:40:47;;;;;;;9.48;1.70;;;6.70;99.90;;;6.17;100.00;97347.34;5040100;28;20525;-71
2022/11/25 03:43:14;;;;;;;7.88;2.10;;;6.70;99.90;;;6.19;100.00;97348.16;5041914;28;20396;-71
2022/11/25 03:45:41;;;;;;;10.48;1.45;;;6.60;99.90;;;6.13;100.00;97343.16;5038757;28;20071;-70
2022/11/25 03:48:07;;;;;;;8.95;1.30;;;6.50;99.90;;;6.04;100.00;97344.31;5037493;28;20080;-71
2022/11/25 03:50:34;;;;;;;10.35;1.42;;;6.50;99.90;;;6.11;100.00;97341.53;5042764;28;20071;-70
2022/11/25 03:53:01;;;;;;;12.02;2.03;;;6.50;99.90;;;6.01;100.00;97333.22;5038999;28;22043;-71
2022/11/25 03:55:28;;;;;;;7.60;1.67;;;6.50;99.90;;;6.00;100.00;97332.38;5040416;28;20069;-70
2022/11/25 03:57:55;;;;;;;10.65;1.98;;;6.40;99.90;;;5.85;100.00;97341.34;5039531;28;20049;-70
2022/11/25 04:00:22;;;;;;;9.98;1.90;;;6.40;99.90;;;5.78;100.00;97331.25;5041334;28;20095;-71
2022/11/25 04:02:49;;;;;;;10.30;2.20;;;6.30;99.90;;;5.70;100.00;97339.16;5041814;28;20048;-70
2022/11/25 04:05:16;;;;;;;7.38;1.80;;;6.30;99.90;;;5.75;100.00;97334.75;5039955;28;20052;-70
2022/11/25 04:07:43;;;;;;;8.88;2.10;;;6.20;99.90;;;5.72;100.00;97334.81;5042820;28;20106;-69
2022/11/25 04:10:10;;;;;;;8.15;1.70;;;6.30;99.90;;;5.70;100.00;97333.19;5040171;28;20103;-69
2022/11/25 04:12:46;;;;;;;11.68;1.90;;;6.30;99.90;;;5.72;100.00;97329.69;5021988;28;20411;-70
2022/11/25 04:15:17;;;;;;;10.50;1.85;;;6.30;99.90;;;5.63;100.00;97332.50;5039116;28;20532;-71
2022/11/25 04:17:44;;;;;;;10.27;2.30;;;6.30;99.90;;;5.81;100.00;97326.84;5035831;28;20164;-69
2022/11/25 04:20:13;;;;;;;11.32;1.42;;;6.30;99.90;;;5.80;100.00;97329.50;5042232;28;20455;-71
2022/11/25 04:22:40;;;;;;;9.30;1.92;;;6.40;99.90;;;5.78;100.00;97334.66;5043087;28;20048;-71
2022/11/25 04:25:08;;;;;;;8.68;1.98;;;6.40;99.90;;;5.80;100.00;97334.63;5039274;28;20056;-71
2022/11/25 04:27:35;;;;;;;9.23;1.40;;;6.40;99.90;;;5.83;100.00;97339.69;5058330;28;20049;-71
2022/11/25 04:30:02;;;;;;;7.75;1.95;;;6.50;99.90;;;5.89;100.00;97349.84;5042644;28;20045;-71
2022/11/25 04:32:29;;;;;;;9.18;1.33;;;6.50;99.90;;;5.99;100.00;97346.13;5047069;28;20407;-71
2022/11/25 04:34:56;;;;;;;7.57;1.27;;;6.60;99.90;;;6.10;100.00;97355.31;5045849;28;20132;-70
2022/11/25 04:37:23;;;;;;;10.10;1.63;;;6.70;99.90;;;6.19;100.00;97353.31;5044118;28;20060;-71
2022/11/25 04:39:50;;;;;;;8.85;1.48;;;6.70;99.90;;;6.27;100.00;97363.38;5045353;28;20402;-69
2022/11/25 04:42:33;;;;;;;11.77;1.52;;;6.70;99.90;;;6.27;100.00;97348.78;5045662;28;20075;-71
2022/11/25 04:45:04;;;;;;;17.05;2.28;;;6.80;99.90;;;6.38;100.00;97355.34;5045000;28;20073;-70
2022/11/25 04:47:50;;;;;;;8.73;1.70;;;6.90;99.90;;;6.37;100.00;97354.50;5043601;28;20049;-72
2022/11/25 04:50:20;;;;;;;11.10;1.67;;;6.90;99.90;;;6.46;100.00;97349.09;5045791;28;20387;-71
2022/11/25 04:52:47;;;;;;;8.68;1.63;;;7.00;99.90;;;6.49;100.00;97336.09;5060328;28;20098;-71
2022/11/25 04:55:14;;;;;;;5.70;1.13;;;7.00;99.90;;;6.63;100.00;97350.31;5042632;28;20510;-70
2022/11/25 04:57:41;;;;;;;7.00;1.40;;;7.10;99.90;;;6.61;100.00;97355.50;5044507;28;20053;-71
2022/11/25 05:00:10;;;;;;;10.70;2.00;;;7.10;99.90;;;6.62;100.00;97358.94;5042349;28;20048;-71
2022/11/25 05:02:36;;;;;;;10.93;1.50;;;7.20;99.90;;;6.66;100.00;97366.53;5047229;28;20059;-70
2022/11/25 05:05:05;;;;;;;8.13;1.48;;;7.20;99.90;;;6.56;100.00;97369.44;5047461;28;20049;-72
2022/11/25 05:07:32;;;;;;;9.65;2.03;;;7.30;99.90;;;6.62;100.00;97366.69;5049096;28;20045;-72
2022/11/25 05:09:59;;;;;;;8.77;2.38;;;7.30;99.90;;;6.53;100.00;97372.13;5044981;28;20096;-71
2022/11/25 05:12:28;;;;;;;8.95;2.33;;;7.20;99.90;;;6.59;100.00;97367.63;5048714;28;20188;-71
2022/11/25 05:14:56;;;;;;;7.28;1.33;;;7.20;99.90;;;6.60;100.00;97369.31;5045165;28;20072;-71
2022/11/25 05:17:28;;;;;;;11.30;1.58;;;7.20;99.90;;;6.65;100.00;97372.56;5046415;28;20057;-70
2022/11/25 05:19:55;;;;;;;8.75;1.45;;;7.20;99.90;;;6.55;100.00;97376.34;5044853;28;20506;-71
2022/11/25 05:22:30;;;;;;;13.35;2.22;;;7.20;99.90;;;6.60;100.00;97374.47;5044893;28;20525;-71
2022/11/25 05:24:58;;;;;;;7.82;1.60;;;7.20;99.90;;;6.58;100.00;97383.97;5043223;28;20071;-70
2022/11/25 05:27:26;;;;;;;11.50;1.73;;;7.10;99.90;;;6.54;100.00;97379.78;5024270;28;20079;-70
2022/11/25 05:29:53;;;;;;;11.20;1.52;;;7.10;99.90;;;6.58;100.00;97381.41;5041254;28;20407;-71
2022/11/25 05:32:22;;;;;;;11.10;1.50;;;7.20;99.90;;;6.66;100.00;97381.16;5043756;28;20470;-70
2022/11/25 05:34:49;;;;;;;11.23;1.55;;;7.20;99.90;;;6.61;100.00;97373.56;5053559;28;20044;-71
2022/11/25 05:37:16;;;;;;;7.75;1.50;;;7.20;99.90;;;6.80;100.00;97380.75;5045268;28;20059;-72
2022/11/25 05:39:49;;;;;;;7.07;1.70;;;7.20;99.90;;;6.70;100.00;97404.25;5048839;28;20114;-72
2022/11/25 05:42:16;;;;;;;11.35;1.50;;;7.20;99.90;;;6.69;100.00;97404.28;5046927;28;20087;-71
2022/11/25 05:44:43;;;;;;;7.63;1.33;;;7.30;99.90;;;6.78;100.00;97401.44;5046642;28;20501;-71
2022/11/25 05:47:10;;;;;;;5.28;1.60;;;7.30;99.90;;;6.80;100.00;97406.56;5045637;28;20045;-71
2022/11/25 05:49:37;;;;;;;15.20;1.60;;;7.40;99.90;;;6.80;100.00;97402.25;5045700;28;20045;-71
2022/11/25 05:52:04;;;;;;;10.25;1.80;;;7.40;99.90;;;6.85;100.00;97396.94;5046528;28;20060;-70
2022/11/25 05:54:30;;;;;;;5.88;1.27;;;7.40;99.90;;;6.80;100.00;97409.97;5045230;28;20049;-71
2022/11/25 05:56:57;;;;;;;5.85;1.30;;;7.40;99.90;;;6.80;100.00;97420.28;5044365;28;20048;-70
2022/11/25 05:59:24;;;;;;;6.97;1.38;;;7.50;99.90;;;6.80;100.00;97406.56;5045951;28;20147;-71
2022/11/25 06:01:55;;;;;;;8.73;1.45;;;;;;;6.83;100.00;97411.63;5021853;28;20055;-70
2022/11/25 06:04:22;;;;;;;6.72;1.48;;;7.40;99.90;;;6.80;100.00;97417.72;5040537;28;20049;-70
2022/11/25 06:06:48;;;;;;;8.82;1.63;;;7.40;99.90;;;6.80;100.00;97420.28;5046170;28;20091;-70
2022/11/25 06:09:15;;;;;;;7.00;1.55;;;7.30;99.90;;;6.80;100.00;97420.28;5045158;28;20395;-71
2022/11/25 06:11:42;;;;;;;9.60;1.67;;;7.40;99.90;;;6.80;100.00;97415.13;5045503;28;20407;-71
2022/11/25 06:14:09;;;;;;;6.63;1.50;;;7.40;99.90;;;6.78;100.00;97422.06;5043714;28;20498;-71
2022/11/25 06:16:36;;;;;;;8.98;1.70;;;7.40;99.90;;;6.73;100.00;97426.53;5045646;28;20052;-71
2022/11/25 06:19:05;;;;;;;9.48;1.75;;;7.40;99.90;;;6.77;100.00;97424.69;5046187;28;20059;-71
2022/11/25 06:21:32;;;;;;;8.00;1.80;;;7.40;99.90;;;6.77;100.00;97438.44;5048207;28;20080;-70
2022/11/25 06:24:00;;;;;;;7.93;1.50;;;7.40;99.90;;;6.72;100.00;97442.03;5044134;28;20135;-71
2022/11/25 06:26:27;;;;;;;10.32;2.05;;;7.40;99.90;;;6.77;100.00;97443.59;5045474;28;20052;-70
2022/11/25 06:28:56;;;;;;;11.63;1.95;;;7.40;99.90;;;6.86;100.00;97443.31;5044803;28;20086;-71
2022/11/25 06:31:25;;;;;;;10.02;2.03;;;7.40;99.90;;;6.82;100.00;97440.88;5046112;28;20051;-70
2022/11/25 06:33:53;;;;;;;13.13;2.00;;;7.40;99.90;;;6.81;100.00;97441.78;5028903;28;20895;-71
2022/11/25 06:36:21;;;;;;;7.63;1.92;;;7.40;99.90;;;6.81;100.00;97447.78;5044961;28;20041;-71
2022/11/25 06:38:51;;;;;;;8.07;1.80;;;7.40;99.90;;;6.76;100.00;97459.97;5046242;28;20052;-71
2022/11/25 06:41:20;;;;;;;11.13;1.83;;;7.40;99.90;;;6.67;100.00;97466.22;5044669;28;20041;-71
2022/11/25 06:43:47;;;;;;;10.20;2.20;;;7.40;99.90;;;6.76;100.00;97461.72;5041803;28;20049;-70
2022/11/25 06:46:16;;;;;;;7.07;1.95;;;7.30;99.90;;;6.67;100.00;97467.97;5040198;28;20045;-72
2022/11/25 06:48:52;;;;;;;13.05;2.60;;;7.20;99.90;;;6.59;100.00;97478.53;5044050;28;20061;-71
2022/11/25 06:51:19;;;;;;;12.77;1.80;;;7.10;99.90;;;6.54;100.00;97474.38;5043929;28;20052;-71
2022/11/25 06:53:47;;;;;;;11.30;2.60;;;7.00;99.90;;;6.48;100.00;97483.97;5042930;28;20044;-72
2022/11/25 06:56:21;;;;;;;7.82;1.98;;;7.00;99.90;;;6.47;100.00;97484.00;5044724;28;20053;-71
2022/11/25 06:58:48;;;;;;;11.88;1.60;;;6.90;99.90;;;6.43;100.00;97480.69;5043462;28;20514;-71
2022/11/25 07:01:26;;;;;;;9.70;1.77;;;6.90;99.90;;;6.48;100.00;97480.56;5042942;28;20071;-71
2022/11/25 07:04:02;;;;;;;11.27;2.10;;;6.90;99.90;;;6.53;100.00;97483.00;5043909;28;20079;-71
2022/11/25 07:06:30;;;;;;;7.43;1.77;;;6.90;99.90;;;6.55;100.00;97487.22;5044236;28;20079;-71
2022/11/25 07:08:58;;;;;;;9.07;1.92;;;6.90;99.90;;;6.56;100.00;97504.38;5059760;28;20061;-72
2022/11/25 07:11:32;;;;;;;10.43;2.10;;;7.00;99.90;;;6.63;100.00;97507.63;5044403;28;20049;-71
2022/11/25 07:14:03;;;;;;;12.00;2.20;;;7.00;99.90;;;6.48;100.00;97506.34;5042425;28;20053;-71
2022/11/25 07:16:31;;;;;;;7.93;2.22;;;7.00;99.90;;;6.41;100.00;97507.38;5037356;28;20056;-71
2022/11/25 07:19:00;;;;;;;11.23;2.05;;;7.00;99.90;;;6.38;100.00;97510.88;5045402;28;20127;-71
2022/11/25 07:21:29;;;;;;;10.95;2.42;;;7.00;99.90;;;6.29;100.00;97513.69;5043841;28;20084;-71
2022/11/25 07:24:03;;;;;;;12.85;2.28;;;6.90;99.90;;;6.34;100.00;97519.59;5041499;28;20379;-72
2022/11/25 07:26:36;;;;;;;9.85;2.00;;;6.80;99.90;;;6.36;100.00;97522.94;5044212;28;20045;-72
2022/11/25 07:29:05;;;;;;;;;;;6.80;99.90;;;6.22;100.00;97533.63;5059600;28;20055;-72
2022/11/25 07:31:52;;;;;;;15.18;2.45;;;6.90;99.90;;;6.23;100.00;97545.66;5043157;28;19925;-71
2022/11/25 07:34:20;;;;;;;12.90;2.35;;;6.90;99.90;;;6.21;100.00;97547.41;5046312;28;20063;-72
2022/11/25 07:36:49;;;;;;;13.90;3.53;;;6.90;99.90;;;6.24;100.00;97555.06;5045732;28;20532;-71
2022/11/25 07:39:20;;;;;;;12.63;3.28;;;6.80;99.90;;;6.18;100.00;97562.09;5061256;28;20511;-71
2022/11/25 07:41:53;;;;;;;15.65;3.20;;;6.80;99.90;;;6.29;100.00;97567.81;5023879;28;20400;-71
2022/11/25 07:44:21;;;;;;;12.98;3.20;;;6.80;99.90;;;6.22;100.00;97576.59;5042162;28;20073;-71
2022/11/25 07:46:49;;;;;;;13.93;3.28;;;6.80;99.90;;;6.12;100.00;97590.63;5045807;28;20164;-71
2022/11/25 07:49:24;;;;;;;11.77;3.17;;;6.80;99.90;;;6.10;100.00;97593.22;5032470;28;20132;-71
2022/11/25 07:51:58;;;;;;;15.02;3.53;;;6.80;99.90;;;6.00;100.00;97596.94;5043057;28;20059;-70
2022/11/25 07:54:25;;;;;;;17.25;4.30;;;6.70;99.90;;;5.92;100.00;97603.94;5041242;28;20469;-70
2022/11/25 07:56:52;;;;;;;12.25;2.25;;;6.70;99.90;;;6.02;100.00;97598.56;5049079;28;20426;-72
2022/11/25 07:59:21;;;;;;;15.10;3.40;;;6.70;99.90;;;5.96;100.00;97605.59;5044326;28;20072;-69
2022/11/25 08:01:53;;;;;;;13.80;3.20;;;6.70;99.90;;;6.08;100.00;97597.56;5044503;28;20486;-70
2022/11/25 08:04:21;;;;;;;16.73;3.15;;;6.70;99.90;;;5.99;100.00;97590.91;5037995;28;20045;-73
2022/11/25 08:06:51;;;;;;;15.02;3.92;;;6.70;99.90;;;5.98;100.00;97594.38;5046582;28;20045;-72
2022/11/25 08:09:21;;;;;;;13.00;3.80;;;6.70;99.90;;;5.95;100.00;97591.00;5039775;28;20132;-73
2022/11/25 08:11:49;;;;;;;16.00;3.33;;;6.70;99.90;;;6.13;100.00;97592.31;5048209;28;20136;-72
2022/11/25 08:14:16;;;;;;;19.98;4.10;;;6.70;99.90;;;6.15;100.00;97596.53;5047879;28;20049;-73
2022/11/25 08:16:44;;;;;;;17.95;4.38;;;6.80;99.90;;;6.20;100.00;97596.41;5047365;28;20055;-73
2022/11/25 08:19:14;;;;;;;16.33;4.60;;;6.80;99.90;;;6.15;100.00;97593.09;5047650;28;20520;-72
2022/11/25 08:21:42;;;;;;;13.65;3.42;;;6.80;99.90;;;6.16;100.00;97605.09;5038309;28;20052;-73
2022/11/25 08:24:15;;;;;;;17.30;3.22;;;6.80;99.90;;;6.23;100.00;97604.94;5045383;28;20753;-72
2022/11/25 08:26:42;;;;;;;18.25;3.75;;;6.80;99.90;;;6.19;100.00;97610.19;5044134;28;20056;-73
2022/11/25 08:29:13;;;;;;;15.15;3.50;;;6.80;99.90;;;6.26;100.00;97616.91;5043119;28;20053;-73
2022/11/25 08:31:41;;;;;;;17.55;4.07;;;6.80;99.90;;;6.28;100.00;97612.56;5047655;28;20059;-72
2022/11/25 08:34:15;;;;;;;21.63;3.33;;;6.90;99.90;;;6.21;100.00;97622.16;5047837;28;20477;-72
2022/11/25 08:36:42;;;;;;;17.60;3.60;;;6.90;99.90;;;6.46;100.00;97621.56;5048831;28;20060;-73
2022/11/25 08:39:15;;;;;;;14.95;3.47;;;6.90;99.90;;;6.39;100.00;97632.91;5044987;28;20048;-73
2022/11/25 08:42:04;;;;;;;12.20;3.65;;;6.90;99.90;;;6.52;100.00;97626.53;5059260;28;20144;-69
2022/11/25 08:44:31;;;;;;;13.85;3.08;;;7.00;99.90;;;6.52;100.00;97636.84;5039974;28;20055;-70
2022/11/25 08:46:57;;;;;;;14.65;3.47;;;7.00;99.90;;;6.64;100.00;97636.56;5047228;28;20040;-70
2022/11/25 08:49:25;;;;;;;13.88;3.80;;;7.10;99.90;;;6.63;100.00;97642.59;5045780;28;20485;-71
2022/11/25 08:51:52;;;;;;;16.17;4.13;;;7.10;99.90;;;6.69;100.00;97649.34;5043926;28;20140;-72
2022/11/25 08:54:19;;;;;;;14.20;4.47;;;7.20;99.90;;;6.84;100.00;97650.66;5049068;28;20044;-70
2022/11/25 08:56:46;;;;;;;17.17;3.53;;;7.40;99.90;;;6.77;100.00;97657.69;5045230;28;20053;-70
2022/11/25 08:59:13;;;;;;;12.27;3.65;;;7.50;99.90;;;6.74;100.00;97655.22;5042449;28;20048;-71
2022/11/25 09:01:40;;;;;;;15.48;4.47;;;7.50;99.90;;;6.74;100.00;97662.13;5043736;28;20150;-70
2022/11/25 09:04:07;;;;;;;21.67;4.90;;;7.50;99.90;;;6.78;100.00;97659.41;5041500;28;20056;-71
2022/11/25 09:06:34;;;;;;;16.63;4.68;;;7.50;99.90;;;6.84;100.00;97661.84;5038740;28;20498;-70
2022/11/25 09:09:00;;;;;;;16.08;4.72;;;7.50;99.90;;;6.88;100.00;97657.44;5048615;28;20131;-70
2022/11/25 09:11:28;;;;;;;19.27;4.50;;;7.60;99.90;;;7.00;100.00;97669.16;5041684;28;20135;-71
2022/11/25 09:13:55;;;;;;;17.90;4.63;;;7.50;99.90;;;6.99;100.00;97670.06;5043937;28;20057;-70
2022/11/25 09:16:22;;;;;;;16.80;4.45;;;7.60;99.90;;;6.96;100.00;97668.41;5047275;28;20079;-70
2022/11/25 09:18:52;;;;;;;18.38;5.35;;;7.60;99.90;;;6.87;100.00;97673.81;5046360;28;20080;-70
2022/11/25 09:21:23;;;;;;;13.88;5.07;;;7.70;99.90;;;6.93;100.00;97678.78;5045655;28;20075;-69
2022/11/25 09:23:53;;;;;;;15.68;4.65;;;7.70;99.90;;;7.05;100.00;97675.91;5043177;28;20415;-71
2022/11/25 09:26:27;;;;;;;17.10;5.97;;;7.70;99.90;;;7.01;100.00;97684.59;5044849;28;20045;-69
2022/11/25 09:28:55;;;;;;;14.68;5.32;;;7.80;99.90;;;6.88;100.00;97684.06;5045520;28;20419;-70
2022/11/25 09:31:23;;;;;;;18.08;6.15;;;7.90;99.90;;;6.99;100.00;97690.69;5047982;28;20052;-70
2022/11/25 09:33:50;;;;;;;17.30;5.60;;;7.90;99.90;;;6.95;100.00;97694.25;5044222;28;20049;-70
2022/11/25 09:36:19;;;;;;;15.43;5.95;;;7.90;99.90;;;7.17;100.00;97684.19;5043637;28;20058;-68
2022/11/25 09:38:46;;;;;;;20.08;5.88;;;8.00;99.90;;;7.12;100.00;97690.31;5042250;28;20044;-70
2022/11/25 09:48:08;;;;;;;15.77;5.70;;;8.20;99.90;;;7.38;100.00;97701.66;5046428;28;20053;-71
2022/11/25 09:51:00;;;;;;;15.82;5.97;;;8.30;99.90;;;7.43;100.00;97706.72;5044524;28;20049;-70
2022/11/25 09:53:42;;;;;;;16.50;5.85;;;8.40;99.90;;;7.46;100.00;97702.31;5045966;28;20468;-70
2022/11/25 09:56:34;;;;;;;19.27;5.45;;;8.50;99.90;;;7.47;100.00;97706.56;5048107;28;20053;-70
2022/11/25 09:59:17;;;;;;;16.35;4.70;;;8.50;99.90;;;7.56;100.00;97713.22;5038461;28;20055;-70
2022/11/25 10:02:00;;;;;;;17.52;5.05;;;8.50;99.90;;;7.72;100.00;97717.06;5042945;28;20055;-71
2022/11/25 10:04:35;;;;;;;15.95;5.35;;;8.50;99.90;;;7.45;100.00;97715.25;5043527;28;20055;-71
2022/11/25 10:07:13;;;;;;;15.27;4.68;;;8.60;99.90;;;7.61;100.00;97715.69;5042137;28;20447;-71
2022/11/25 10:09:40;;;;;;;15.00;5.95;;;8.70;99.90;;;7.83;100.00;97715.91;5027043;28;20128;-72
2022/11/25 10:12:30;;;;;;;16.10;4.80;;;8.80;99.90;;;7.94;100.00;97703.53;5040982;28;20528;-71
2022/11/25 10:15:22;;;;;;;14.95;5.30;;;8.90;99.90;;;7.85;100.00;97711.56;5040202;28;20048;-71
2022/11/25 10:17:59;;;;;;;17.15;6.13;;;8.90;99.90;;;7.91;100.00;97709.63;5036136;28;20132;-70
2022/11/25 10:20:32;;;;;;;16.73;5.82;;;8.80;99.90;;;7.84;100.00;97715.00;5032714;28;20057;-71
2022/11/25 10:23:14;;;;;;;14.13;5.55;;;8.80;99.90;;;7.93;100.00;97713.00;5044066;28;20140;-71
2022/11/25 10:25:50;;;;;;;18.38;5.80;;;8.90;99.90;;;7.84;100.00;97707.25;5042648;28;20060;-70
2022/11/25 10:28:21;;;;;;;16.02;5.18;;;8.90;99.90;;;7.77;100.00;97705.75;5058609;28;20059;-72
2022/11/25 10:31:24;;;;;;;15.57;4.82;;;9.00;99.90;;;8.28;100.00;97711.09;5038605;28;20052;-72
2022/11/25 10:33:58;;;;;;;15.30;6.57;;;9.00;99.90;;;8.26;100.00;97710.28;5042110;28;20182;-72
2022/11/25 10:36:33;;;;;;;12.65;4.90;;;9.00;99.90;;;8.35;100.00;97711.75;5045997;28;20045;-72
2022/11/25 10:39:13;;;;;;;14.35;3.90;;;9.00;99.90;;;7.93;100.00;97720.75;5055104;28;20101;-71
2022/11/25 10:42:08;;;;;;;17.33;4.55;;;8.80;99.90;;;7.97;100.00;97716.34;5039582;28;20063;-71
2022/11/25 10:44:40;;;;;;;16.17;4.57;;;8.90;99.90;;;8.03;100.00;97729.09;5035066;28;20045;-69